HS Bizet — A8MI3 — position and weather

sailwx.info

Track history (hours):
 
Tides and Currents Weather Stations Pressure Air Temp Water Temp Dewpoint Dewpoint Depression Visibility Wind Speed Wind Dir Waves Ship Positions

HS Bizet

Last reported at 2014-Dec-18 17:29 UTC. Time now 2014-Dec-21 09:19 UTC.
Position N 32°04' W 117°52'.

Length 246 m; draft 10 m.

Type: Ship (hazmat cat A). MMSI: 636091349.

Date/timePositionNaut miles runAvg speedWind from/ knotsBaromVisibWave heightAir tempDewpointWater temp
2014-Dec-18 17:29N 32°04' W 117°52'1717.8
2014-Dec-18 16:31N 32°22' W 117°52'1717.8
2014-Dec-18 15:34N 32°39' W 117°50'1716.8
2014-Dec-18 14:33N 32°55' W 117°51'1616.0
2014-Dec-18 13:33N 33°10' W 117°60'1515.1
2014-Dec-18 12:32N 33°23' W 118°08'1813.1
2014-Dec-18 11:11N 33°41' W 118°11'5 7.6
2014-Dec-18 10:33N 33°45' W 118°13'1 1.1
2014-Dec-18 09:31N 33°46' W 118°14'0 0.0
2014-Dec-18 08:31N 33°46' W 118°14'0 0.0
2014-Dec-18 07:31N 33°46' W 118°14'0 0.0
2014-Dec-18 06:31N 33°46' W 118°14'0 0.0
2014-Dec-18 05:22N 33°46' W 118°14'0 0.0
2014-Dec-18 04:31N 33°46' W 118°14'0 0.0
2014-Dec-18 03:31N 33°46' W 118°14'0 0.0
2014-Dec-18 02:31N 33°46' W 118°14'0 0.0
2014-Dec-18 01:31N 33°46' W 118°14'0 0.0
2014-Dec-18 00:31N 33°46' W 118°14'0 0.0
2014-Dec-17 23:31N 33°46' W 118°14'0 0.0
2014-Dec-17 22:31N 33°46' W 118°14'0 0.0
2014-Dec-17 21:31N 33°46' W 118°14'0 0.0
2014-Dec-17 20:31N 33°46' W 118°14'0 0.0
2014-Dec-17 19:31N 33°46' W 118°14'0 0.0
2014-Dec-17 18:31N 33°46' W 118°14'0 0.0
2014-Dec-17 17:31N 33°46' W 118°14'0 0.0
2014-Dec-17 16:31N 33°46' W 118°14'0 0.0
2014-Dec-17 15:31N 33°46' W 118°14'0 0.0
2014-Dec-17 14:31N 33°46' W 118°14'0 0.0
2014-Dec-17 13:31N 33°46' W 118°14'0 0.0
2014-Dec-17 12:31N 33°46' W 118°14'0 0.0
2014-Dec-17 11:31N 33°46' W 118°14'0 0.0
2014-Dec-17 10:31N 33°46' W 118°14'0 0.0
2014-Dec-17 09:31N 33°46' W 118°14'0 0.0
2014-Dec-17 08:31N 33°46' W 118°14'0 0.0
2014-Dec-17 07:31N 33°46' W 118°14'0 0.0
2014-Dec-17 06:31N 33°46' W 118°14'0 0.0
2014-Dec-17 05:31N 33°46' W 118°14'0 0.0
2014-Dec-17 04:31N 33°46' W 118°14'0 0.0
2014-Dec-17 03:31N 33°46' W 118°14'0 0.0
2014-Dec-17 02:31N 33°46' W 118°14'0 0.0
2014-Dec-17 01:31N 33°46' W 118°14'0 0.0
2014-Dec-17 00:31N 33°46' W 118°14'0 0.0
2014-Dec-16 23:31N 33°46' W 118°14'0 0.0
2014-Dec-16 22:31N 33°46' W 118°14'0 0.0
2014-Dec-16 21:31N 33°46' W 118°14'0 0.0
2014-Dec-16 20:31N 33°46' W 118°14'0 0.0
2014-Dec-16 19:31N 33°46' W 118°14'0 0.0
2014-Dec-16 18:31N 33°46' W 118°14'0 0.0
2014-Dec-16 17:31N 33°46' W 118°14'0 0.0
2014-Dec-16 16:31N 33°46' W 118°14'0 0.0
2014-Dec-16 15:28N 33°46' W 118°14'0 0.1
2014-Dec-16 13:33N 33°46' W 118°14'2 2.1
2014-Dec-16 12:33N 33°44' W 118°12'207 9.3
2014-Dec-15 14:19N 35°24' W 121°53'1215.2
2014-Dec-15 13:33N 35°34' W 122°01'1615.7
2014-Dec-15 12:33N 35°46' W 122°13'1615.8
2014-Dec-15 11:33N 35°59' W 122°24'1616.1
2014-Dec-15 10:33N 36°13' W 122°33'1616.3
2014-Dec-15 09:33N 36°28' W 122°42'2116.4
2014-Dec-15 08:17N 36°47' W 122°52'4014.3
2014-Dec-15 05:27N 37°27' W 122°44'1415.2
2014-Dec-15 04:33N 37°41' W 122°43'1313.1
2014-Dec-15 03:33N 37°49' W 122°30'8 8.1
2014-Dec-15 02:31N 37°49' W 122°19'0 0.0
2014-Dec-15 01:31N 37°49' W 122°19'0 0.0
2014-Dec-15 00:31N 37°49' W 122°19'0 0.0
2014-Dec-14 23:31N 37°49' W 122°19'0 0.0
2014-Dec-14 22:31N 37°49' W 122°19'0 0.0
2014-Dec-14 21:31N 37°49' W 122°19'0 0.0
2014-Dec-14 20:28N 37°49' W 122°19'0 0.0
2014-Dec-14 19:28N 37°49' W 122°19'0 0.0
2014-Dec-14 18:31N 37°49' W 122°19'0 0.0
2014-Dec-14 17:31N 37°49' W 122°19'0 0.0
2014-Dec-14 16:31N 37°49' W 122°19'0 0.0
2014-Dec-14 15:31N 37°49' W 122°19'0 0.0
2014-Dec-14 14:31N 37°49' W 122°19'0 0.0
2014-Dec-14 13:31N 37°49' W 122°19'0 0.0
2014-Dec-14 12:31N 37°49' W 122°19'0 0.0
2014-Dec-14 11:31N 37°49' W 122°19'0 0.0
2014-Dec-14 10:31N 37°49' W 122°19'0 0.0
2014-Dec-14 09:31N 37°49' W 122°19'0 0.0
2014-Dec-14 08:31N 37°49' W 122°19'0 0.0
2014-Dec-14 07:28N 37°49' W 122°19'0 0.0
2014-Dec-14 06:31N 37°49' W 122°19'0 0.0
2014-Dec-14 05:28N 37°49' W 122°19'0 0.0
2014-Dec-14 04:28N 37°49' W 122°19'0 0.0
2014-Dec-14 03:28N 37°49' W 122°19'0 0.0
2014-Dec-14 02:31N 37°49' W 122°19'0 0.0
2014-Dec-14 01:31N 37°49' W 122°19'0 0.0
2014-Dec-14 00:31N 37°49' W 122°19'0 0.0
2014-Dec-13 23:31N 37°49' W 122°19'0 0.0
2014-Dec-13 22:28N 37°49' W 122°19'0 0.0
2014-Dec-13 21:31N 37°49' W 122°19'0 0.0
2014-Dec-13 20:31N 37°49' W 122°19'0 0.0
2014-Dec-13 19:31N 37°49' W 122°19'0 0.0
2014-Dec-13 18:31N 37°49' W 122°19'0 0.0
2014-Dec-13 17:31N 37°49' W 122°19'0 0.0
2014-Dec-13 16:31N 37°49' W 122°19'0 0.0
2014-Dec-13 15:31N 37°49' W 122°19'0 0.3
2014-Dec-13 14:33N 37°49' W 122°19'5 4.6
2014-Dec-13 13:32N 37°44' W 122°21'0 0.0
2014-Dec-13 12:32N 37°44' W 122°21'0 0.0
2014-Dec-13 11:32N 37°44' W 122°21'0 0.0
2014-Dec-13 10:32N 37°44' W 122°21'0 0.0
2014-Dec-13 09:32N 37°44' W 122°21'0 0.0
2014-Dec-13 08:29N 37°44' W 122°21'0 0.1
2014-Dec-13 07:32N 37°44' W 122°21'0 0.2
2014-Dec-13 06:32N 37°45' W 122°21'0 0.0
2014-Dec-13 05:32N 37°45' W 122°21'0 0.0
2014-Dec-13 04:29N 37°45' W 122°21'0 0.0
2014-Dec-13 03:32N 37°45' W 122°21'0 0.0
2014-Dec-13 02:32N 37°45' W 122°21'0 0.0
2014-Dec-13 01:32N 37°45' W 122°21'0 0.0
2014-Dec-13 00:32N 37°45' W 122°21'0 0.2
2014-Dec-12 23:32N 37°44' W 122°21'0 0.1
2014-Dec-12 22:32N 37°44' W 122°21'0 0.0
2014-Dec-12 21:32N 37°44' W 122°21'0 0.0
2014-Dec-12 20:32N 37°44' W 122°21'0 0.2
2014-Dec-12 19:32N 37°44' W 122°21'0 0.1
2014-Dec-12 18:32N 37°45' W 122°21'0 0.0
2014-Dec-12 17:32N 37°45' W 122°21'0 0.0
2014-Dec-12 16:32N 37°45' W 122°21'0 0.0
2014-Dec-12 15:32N 37°45' W 122°21'0 0.0
2014-Dec-12 14:32N 37°45' W 122°21'0 0.0
2014-Dec-12 13:32N 37°44' W 122°21'0 0.2
2014-Dec-12 12:32N 37°44' W 122°21'0 0.1
2014-Dec-12 11:32N 37°44' W 122°21'0 0.0
2014-Dec-12 10:32N 37°44' W 122°21'0 0.0
2014-Dec-12 09:32N 37°44' W 122°21'0 0.0
2014-Dec-12 08:32N 37°44' W 122°21'0 0.0
2014-Dec-12 07:32N 37°44' W 122°21'0 0.1
2014-Dec-12 06:32N 37°44' W 122°21'0 0.2
2014-Dec-12 05:32N 37°45' W 122°21'0 0.0
2014-Dec-12 04:32N 37°45' W 122°21'0 0.0
2014-Dec-12 03:32N 37°45' W 122°21'0 0.0
2014-Dec-12 02:29N 37°45' W 122°21'0 0.0
2014-Dec-12 01:32N 37°45' W 122°21'0 0.0
2014-Dec-12 00:29N 37°45' W 122°21'0 0.0
2014-Dec-11 23:32N 37°45' W 122°21'0 0.1
2014-Dec-11 22:32N 37°45' W 122°21'0 0.1
2014-Dec-11 21:32N 37°44' W 122°21'0 0.0
2014-Dec-11 20:32N 37°44' W 122°21'0 0.0
2014-Dec-11 19:32N 37°44' W 122°21'0 0.1
2014-Dec-11 18:32N 37°44' W 122°21'0 0.1
2014-Dec-11 17:32N 37°45' W 122°21'0 0.0
2014-Dec-11 16:32N 37°45' W 122°21'0 0.1
2014-Dec-11 15:32N 37°45' W 122°21'0 0.0
2014-Dec-11 14:32N 37°45' W 122°21'0 0.0
2014-Dec-11 13:32N 37°45' W 122°21'0 0.0
2014-Dec-11 12:32N 37°45' W 122°21'0 0.1
2014-Dec-11 11:32N 37°45' W 122°21'0 0.1
2014-Dec-11 10:32N 37°44' W 122°21'0 0.2
2014-Dec-11 09:32N 37°44' W 122°21'0 0.1
2014-Dec-11 08:32N 37°44' W 122°21'0 0.1
2014-Dec-11 07:32N 37°44' W 122°21'0 0.2
2014-Dec-11 06:32N 37°44' W 122°21'0 0.1
2014-Dec-11 05:32N 37°45' W 122°21'0 0.0
2014-Dec-11 04:32N 37°45' W 122°21'0 0.0
2014-Dec-11 03:32N 37°45' W 122°21'0 0.0
2014-Dec-11 02:32N 37°45' W 122°21'0 0.0
2014-Dec-11 01:32N 37°45' W 122°21'0 0.0
2014-Dec-11 00:32N 37°45' W 122°21'0 0.0
2014-Dec-10 23:32N 37°45' W 122°21'0 0.0
2014-Dec-10 22:32N 37°45' W 122°21'0 0.2
2014-Dec-10 21:32N 37°44' W 122°21'0 0.0
2014-Dec-10 20:32N 37°44' W 122°21'0 0.0
2014-Dec-10 19:32N 37°44' W 122°21'0 0.0
2014-Dec-10 18:32N 37°44' W 122°21'0 0.2
2014-Dec-10 17:32N 37°44' W 122°21'0 0.2
2014-Dec-10 16:32N 37°45' W 122°21'0 0.0
2014-Dec-10 15:32N 37°45' W 122°21'0 0.0
2014-Dec-10 14:32N 37°45' W 122°21'0 0.1
2014-Dec-10 13:33N 37°45' W 122°21'5 5.4
2014-Dec-10 12:33N 37°49' W 122°25'1313.4
2014-Dec-10 11:34N 37°45' W 122°41'3 3.2
2014-Dec-10 10:33N 37°42' W 122°44'1211.8
2014-Dec-10 09:34N 37°36' W 122°56'1414.2
2014-Dec-10 08:34N 37°26' W 123°10'1614.1
2014-Dec-10 07:26N 37°15' W 123°23'  
Track history (hours):
 
Tides and Currents Weather Stations Pressure Air Temp Water Temp Dewpoint Dewpoint Depression Visibility Wind Speed Wind Dir Waves Ship Positions

HS Bizet

Last reported at 2014-Dec-18 17:29 UTC. Time now 2014-Dec-21 09:19 UTC.
Position N 32°04' W 117°52'.

Length 246 m; draft 10 m.

Type: Ship (hazmat cat A). MMSI: 636091349.

Date/timePositionNaut miles runAvg speedWind from/ knotsBaromVisibWave heightAir tempDewpointWater temp
2014-Dec-18 17:29N 32°04' W 117°52'1717.8
2014-Dec-18 16:31N 32°22' W 117°52'1717.8
2014-Dec-18 15:34N 32°39' W 117°50'1716.8
2014-Dec-18 14:33N 32°55' W 117°51'1616.0
2014-Dec-18 13:33N 33°10' W 117°60'1515.1
2014-Dec-18 12:32N 33°23' W 118°08'1813.1
2014-Dec-18 11:11N 33°41' W 118°11'5 7.6
2014-Dec-18 10:33N 33°45' W 118°13'1 1.1
2014-Dec-18 09:31N 33°46' W 118°14'0 0.0
2014-Dec-18 08:31N 33°46' W 118°14'0 0.0
2014-Dec-18 07:31N 33°46' W 118°14'0 0.0
2014-Dec-18 06:31N 33°46' W 118°14'0 0.0
2014-Dec-18 05:22N 33°46' W 118°14'0 0.0
2014-Dec-18 04:31N 33°46' W 118°14'0 0.0
2014-Dec-18 03:31N 33°46' W 118°14'0 0.0
2014-Dec-18 02:31N 33°46' W 118°14'0 0.0
2014-Dec-18 01:31N 33°46' W 118°14'0 0.0
2014-Dec-18 00:31N 33°46' W 118°14'0 0.0
2014-Dec-17 23:31N 33°46' W 118°14'0 0.0
2014-Dec-17 22:31N 33°46' W 118°14'0 0.0
2014-Dec-17 21:31N 33°46' W 118°14'0 0.0
2014-Dec-17 20:31N 33°46' W 118°14'0 0.0
2014-Dec-17 19:31N 33°46' W 118°14'0 0.0
2014-Dec-17 18:31N 33°46' W 118°14'0 0.0
2014-Dec-17 17:31N 33°46' W 118°14'0 0.0
2014-Dec-17 16:31N 33°46' W 118°14'0 0.0
2014-Dec-17 15:31N 33°46' W 118°14'0 0.0
2014-Dec-17 14:31N 33°46' W 118°14'0 0.0
2014-Dec-17 13:31N 33°46' W 118°14'0 0.0
2014-Dec-17 12:31N 33°46' W 118°14'0 0.0
2014-Dec-17 11:31N 33°46' W 118°14'0 0.0
2014-Dec-17 10:31N 33°46' W 118°14'0 0.0
2014-Dec-17 09:31N 33°46' W 118°14'0 0.0
2014-Dec-17 08:31N 33°46' W 118°14'0 0.0
2014-Dec-17 07:31N 33°46' W 118°14'0 0.0
2014-Dec-17 06:31N 33°46' W 118°14'0 0.0
2014-Dec-17 05:31N 33°46' W 118°14'0 0.0
2014-Dec-17 04:31N 33°46' W 118°14'0 0.0
2014-Dec-17 03:31N 33°46' W 118°14'0 0.0
2014-Dec-17 02:31N 33°46' W 118°14'0 0.0
2014-Dec-17 01:31N 33°46' W 118°14'0 0.0
2014-Dec-17 00:31N 33°46' W 118°14'0 0.0
2014-Dec-16 23:31N 33°46' W 118°14'0 0.0
2014-Dec-16 22:31N 33°46' W 118°14'0 0.0
2014-Dec-16 21:31N 33°46' W 118°14'0 0.0
2014-Dec-16 20:31N 33°46' W 118°14'0 0.0
2014-Dec-16 19:31N 33°46' W 118°14'0 0.0
2014-Dec-16 18:31N 33°46' W 118°14'0 0.0
2014-Dec-16 17:31N 33°46' W 118°14'0 0.0
2014-Dec-16 16:31N 33°46' W 118°14'0 0.0
2014-Dec-16 15:28N 33°46' W 118°14'0 0.1
2014-Dec-16 13:33N 33°46' W 118°14'2 2.1
2014-Dec-16 12:33N 33°44' W 118°12'207 9.3
2014-Dec-15 14:19N 35°24' W 121°53'1215.2
2014-Dec-15 13:33N 35°34' W 122°01'1615.7
2014-Dec-15 12:33N 35°46' W 122°13'1615.8
2014-Dec-15 11:33N 35°59' W 122°24'1616.1
2014-Dec-15 10:33N 36°13' W 122°33'1616.3
2014-Dec-15 09:33N 36°28' W 122°42'2116.4
2014-Dec-15 08:17N 36°47' W 122°52'4014.3
2014-Dec-15 05:27N 37°27' W 122°44'1415.2
2014-Dec-15 04:33N 37°41' W 122°43'1313.1
2014-Dec-15 03:33N 37°49' W 122°30'8 8.1
2014-Dec-15 02:31N 37°49' W 122°19'0 0.0
2014-Dec-15 01:31N 37°49' W 122°19'0 0.0
2014-Dec-15 00:31N 37°49' W 122°19'0 0.0
2014-Dec-14 23:31N 37°49' W 122°19'0 0.0
2014-Dec-14 22:31N 37°49' W 122°19'0 0.0
2014-Dec-14 21:31N 37°49' W 122°19'0 0.0
2014-Dec-14 20:28N 37°49' W 122°19'0 0.0
2014-Dec-14 19:28N 37°49' W 122°19'0 0.0
2014-Dec-14 18:31N 37°49' W 122°19'0 0.0
2014-Dec-14 17:31N 37°49' W 122°19'0 0.0
2014-Dec-14 16:31N 37°49' W 122°19'0 0.0
2014-Dec-14 15:31N 37°49' W 122°19'0 0.0
2014-Dec-14 14:31N 37°49' W 122°19'0 0.0
2014-Dec-14 13:31N 37°49' W 122°19'0 0.0
2014-Dec-14 12:31N 37°49' W 122°19'0 0.0
2014-Dec-14 11:31N 37°49' W 122°19'0 0.0
2014-Dec-14 10:31N 37°49' W 122°19'0 0.0
2014-Dec-14 09:31N 37°49' W 122°19'0 0.0
2014-Dec-14 08:31N 37°49' W 122°19'0 0.0
2014-Dec-14 07:28N 37°49' W 122°19'0 0.0
2014-Dec-14 06:31N 37°49' W 122°19'0 0.0
2014-Dec-14 05:28N 37°49' W 122°19'0 0.0
2014-Dec-14 04:28N 37°49' W 122°19'0 0.0
2014-Dec-14 03:28N 37°49' W 122°19'0 0.0
2014-Dec-14 02:31N 37°49' W 122°19'0 0.0
2014-Dec-14 01:31N 37°49' W 122°19'0 0.0
2014-Dec-14 00:31N 37°49' W 122°19'0 0.0
2014-Dec-13 23:31N 37°49' W 122°19'0 0.0
2014-Dec-13 22:28N 37°49' W 122°19'0 0.0
2014-Dec-13 21:31N 37°49' W 122°19'0 0.0
2014-Dec-13 20:31N 37°49' W 122°19'0 0.0
2014-Dec-13 19:31N 37°49' W 122°19'0 0.0
2014-Dec-13 18:31N 37°49' W 122°19'0 0.0
2014-Dec-13 17:31N 37°49' W 122°19'0 0.0
2014-Dec-13 16:31N 37°49' W 122°19'0 0.0
2014-Dec-13 15:31N 37°49' W 122°19'0 0.3
2014-Dec-13 14:33N 37°49' W 122°19'5 4.6
2014-Dec-13 13:32N 37°44' W 122°21'0 0.0
2014-Dec-13 12:32N 37°44' W 122°21'0 0.0
2014-Dec-13 11:32N 37°44' W 122°21'0 0.0
2014-Dec-13 10:32N 37°44' W 122°21'0 0.0
2014-Dec-13 09:32N 37°44' W 122°21'0 0.0
2014-Dec-13 08:29N 37°44' W 122°21'0 0.1
2014-Dec-13 07:32N 37°44' W 122°21'0 0.2
2014-Dec-13 06:32N 37°45' W 122°21'0 0.0
2014-Dec-13 05:32N 37°45' W 122°21'0 0.0
2014-Dec-13 04:29N 37°45' W 122°21'0 0.0
2014-Dec-13 03:32N 37°45' W 122°21'0 0.0
2014-Dec-13 02:32N 37°45' W 122°21'0 0.0
2014-Dec-13 01:32N 37°45' W 122°21'0 0.0
2014-Dec-13 00:32N 37°45' W 122°21'0 0.2
2014-Dec-12 23:32N 37°44' W 122°21'0 0.1
2014-Dec-12 22:32N 37°44' W 122°21'0 0.0
2014-Dec-12 21:32N 37°44' W 122°21'0 0.0
2014-Dec-12 20:32N 37°44' W 122°21'0 0.2
2014-Dec-12 19:32N 37°44' W 122°21'0 0.1
2014-Dec-12 18:32N 37°45' W 122°21'0 0.0
2014-Dec-12 17:32N 37°45' W 122°21'0 0.0
2014-Dec-12 16:32N 37°45' W 122°21'0 0.0
2014-Dec-12 15:32N 37°45' W 122°21'0 0.0
2014-Dec-12 14:32N 37°45' W 122°21'0 0.0
2014-Dec-12 13:32N 37°44' W 122°21'0 0.2
2014-Dec-12 12:32N 37°44' W 122°21'0 0.1
2014-Dec-12 11:32N 37°44' W 122°21'0 0.0
2014-Dec-12 10:32N 37°44' W 122°21'0 0.0
2014-Dec-12 09:32N 37°44' W 122°21'0 0.0
2014-Dec-12 08:32N 37°44' W 122°21'0 0.0
2014-Dec-12 07:32N 37°44' W 122°21'0 0.1
2014-Dec-12 06:32N 37°44' W 122°21'0 0.2
2014-Dec-12 05:32N 37°45' W 122°21'0 0.0
2014-Dec-12 04:32N 37°45' W 122°21'0 0.0
2014-Dec-12 03:32N 37°45' W 122°21'0 0.0
2014-Dec-12 02:29N 37°45' W 122°21'0 0.0
2014-Dec-12 01:32N 37°45' W 122°21'0 0.0
2014-Dec-12 00:29N 37°45' W 122°21'0 0.0
2014-Dec-11 23:32N 37°45' W 122°21'0 0.1
2014-Dec-11 22:32N 37°45' W 122°21'0 0.1
2014-Dec-11 21:32N 37°44' W 122°21'0 0.0
2014-Dec-11 20:32N 37°44' W 122°21'0 0.0
2014-Dec-11 19:32N 37°44' W 122°21'0 0.1
2014-Dec-11 18:32N 37°44' W 122°21'0 0.1
2014-Dec-11 17:32N 37°45' W 122°21'0 0.0
2014-Dec-11 16:32N 37°45' W 122°21'0 0.1
2014-Dec-11 15:32N 37°45' W 122°21'0 0.0
2014-Dec-11 14:32N 37°45' W 122°21'0 0.0
2014-Dec-11 13:32N 37°45' W 122°21'0 0.0
2014-Dec-11 12:32N 37°45' W 122°21'0 0.1
2014-Dec-11 11:32N 37°45' W 122°21'0 0.1
2014-Dec-11 10:32N 37°44' W 122°21'0 0.2
2014-Dec-11 09:32N 37°44' W 122°21'0 0.1
2014-Dec-11 08:32N 37°44' W 122°21'0 0.1
2014-Dec-11 07:32N 37°44' W 122°21'0 0.2
2014-Dec-11 06:32N 37°44' W 122°21'0 0.1
2014-Dec-11 05:32N 37°45' W 122°21'0 0.0
2014-Dec-11 04:32N 37°45' W 122°21'0 0.0
2014-Dec-11 03:32N 37°45' W 122°21'0 0.0
2014-Dec-11 02:32N 37°45' W 122°21'0 0.0
2014-Dec-11 01:32N 37°45' W 122°21'0 0.0
2014-Dec-11 00:32N 37°45' W 122°21'0 0.0
2014-Dec-10 23:32N 37°45' W 122°21'0 0.0
2014-Dec-10 22:32N 37°45' W 122°21'0 0.2
2014-Dec-10 21:32N 37°44' W 122°21'0 0.0
2014-Dec-10 20:32N 37°44' W 122°21'0 0.0
2014-Dec-10 19:32N 37°44' W 122°21'0 0.0
2014-Dec-10 18:32N 37°44' W 122°21'0 0.2
2014-Dec-10 17:32N 37°44' W 122°21'0 0.2
2014-Dec-10 16:32N 37°45' W 122°21'0 0.0
2014-Dec-10 15:32N 37°45' W 122°21'0 0.0
2014-Dec-10 14:32N 37°45' W 122°21'0 0.1
2014-Dec-10 13:33N 37°45' W 122°21'5 5.4
2014-Dec-10 12:33N 37°49' W 122°25'1313.4
2014-Dec-10 11:34N 37°45' W 122°41'3 3.2
2014-Dec-10 10:33N 37°42' W 122°44'1211.8
2014-Dec-10 09:34N 37°36' W 122°56'1414.2
2014-Dec-10 08:34N 37°26' W 123°10'1614.1
2014-Dec-10 07:26N 37°15' W 123°23'  

Dump ship's entire track history